Weather observations for the past three days for
Wahpeton, Harry Stern Airport
| Date | Time (cdt) | Wind (mph) | Vis. (mi.) | Weather | Sky Cond. | Temperature (ºF) | Relative Humidity | Wind Chill (°F) | Heat Index (°F) | Pressure | Precipitation (in) | ||||||
|---|---|---|---|---|---|---|---|---|---|---|---|---|---|---|---|---|---|
| Air | Dwpt | 6 hour | altimeter (in) | sea level (mb) | 1 hr | 3 hr | 6 hr | ||||||||||
| Max. | Min. | ||||||||||||||||
| 04 | 19:35 | NW 18 G 24 | 10.00 | Overcast | FEW065 OVC080 | 48.2 | 21.2 | 34% | 42 | 29.7 | 0.0 | ||||||
| 04 | 19:15 | NW 16 G 22 | 10.00 | Overcast | SCT070 OVC080 | 48.2 | 23 | 37% | 43 | 29.7 | 0.0 | ||||||
| 04 | 18:55 | NW 20 G 26 | 10.00 | Mostly Cloudy | FEW070 BKN080 | 48.2 | 21.2 | 34% | 42 | 29.7 | 0.0 | ||||||
| 04 | 18:35 | NW 25 G 33 | 10.00 | Overcast and Breezy | SCT070 OVC080 | 50 | 21.2 | 32% | 43 | 29.69 | 0.0 | ||||||
| 04 | 18:15 | NW 22 G 31 | 10.00 | Overcast and Breezy | SCT070 OVC080 | 50 | 21.2 | 32% | 44 | 29.68 | 0.0 | ||||||
| 04 | 17:55 | NW 26 G 33 | 10.00 | Mostly Cloudy and Windy | SCT070 BKN080 | 50 | 21.2 | 32% | 43 | 29.68 | 0.0 | ||||||
| 04 | 17:35 | NW 18 G 33 | 10.00 | Mostly Cloudy | SCT070 BKN080 | 50 | 23 | 35% | 44 | 29.68 | 0.0 | ||||||
| 04 | 17:15 | NW 24 G 32 | 10.00 | Overcast and Breezy | SCT065 OVC080 | 50 | 24.8 | 37% | 43 | 29.68 | 0.0 | ||||||
| 04 | 16:55 | NW 20 G 31 | 10.00 | Overcast | BKN065 OVC075 | 50 | 24.8 | 37% | 44 | 29.67 | 0.0 | ||||||
| 04 | 16:35 | NW 23 G 33 | 10.00 | Overcast and Breezy | BKN065 OVC075 | 50 | 24.8 | 37% | 44 | 29.67 | 0.0 | ||||||
| 04 | 16:15 | NW 25 G 36 | 10.00 | Overcast and Breezy | BKN065 OVC075 | 50 | 24.8 | 37% | 43 | 29.67 | 0.0 | ||||||
| 04 | 15:55 | NW 22 G 33 | 10.00 | Overcast and Breezy | OVC060 | 50 | 23 | 35% | 44 | 29.67 | 0.0 | ||||||
| 04 | 15:35 | NW 24 G 32 | 10.00 | Overcast and Breezy | OVC060 | 50 | 23 | 35% | 43 | 29.67 | 0.0 | ||||||
| 04 | 15:15 | NW 28 G 35 | 10.00 | Overcast and Windy | OVC060 | 48.2 | 23 | 37% | 41 | 29.67 | 0.0 | ||||||
| 04 | 14:55 | NW 28 G 33 | 10.00 | Overcast and Windy | BKN055 OVC065 | 48.2 | 24.8 | 40% | 41 | 29.67 | 0.0 | ||||||
| 04 | 14:35 | NW 25 G 35 | 10.00 | Overcast and Breezy | SCT048 OVC060 | 48.2 | 26.6 | 43% | 41 | 29.67 | 0.0 | ||||||
| 04 | 14:15 | NW 20 G 31 | 10.00 | Overcast | BKN050 OVC060 | 48.2 | 28.4 | 46% | 42 | 29.66 | 0.0 | ||||||
| 04 | 13:55 | NW 26 G 33 | 10.00 | Overcast and Windy | BKN048 OVC060 | 48.2 | 26.6 | 43% | 41 | 29.65 | 0.0 | ||||||
| 04 | 13:35 | NW 23 G 32 | 10.00 | Overcast and Breezy | FEW049 OVC060 | 48.2 | 28.4 | 46% | 41 | 29.65 | 0.0 | ||||||
| 04 | 13:15 | NW 26 | 10.00 | Overcast and Windy | FEW043 SCT050 OVC060 | 50 | 28.4 | 43% | 43 | 29.64 | 0.0 | ||||||
| 04 | 12:55 | NW 28 G 36 | 10.00 | Overcast and Windy | SCT044 OVC055 | 50 | 30.2 | 47% | 43 | 29.63 | 0.0 | ||||||
| 04 | 12:35 | NW 26 G 33 | 10.00 | Overcast and Windy | BKN050 OVC060 | 48.2 | 28.4 | 46% | 41 | 29.63 | 0.0 | ||||||
| 04 | 12:15 | NW 21 G 35 | 10.00 | Overcast and Breezy | BKN049 OVC055 | 50 | 28.4 | 43% | 44 | 29.62 | 0.0 | ||||||
| 04 | 11:55 | NW 29 | 10.00 | Overcast and Windy | BKN047 OVC055 | 48.2 | 26.6 | 43% | 40 | 29.61 | 0.0 | ||||||
| 04 | 11:35 | NW 24 G 33 | 10.00 | Overcast and Breezy | BKN050 OVC055 | 50 | 28.4 | 43% | 43 | 29.61 | 0.0 | ||||||
| 04 | 11:15 | NW 29 G 39 | 10.00 | Mostly Cloudy and Windy | BKN049 BKN055 | 50 | 28.4 | 43% | 43 | 29.6 | 0.0 | ||||||
| 04 | 10:55 | NW 25 G 36 | 10.00 | Mostly Cloudy and Breezy | FEW040 SCT048 BKN055 | 50 | 30.2 | 47% | 43 | 29.6 | 0.0 | 0.01 | |||||
| 04 | 10:35 | NW 25 G 32 | 10.00 | Mostly Cloudy and Breezy | SCT042 BKN049 | 50 | 30.2 | 47% | 43 | 29.6 | 0.0 | ||||||
| 04 | 10:15 | NW 28 | 10.00 | Partly Cloudy and Windy | SCT040 SCT047 | 50 | 32 | 50% | 43 | 29.59 | 0.0 | ||||||
| 04 | 09:55 | NW 26 | 10.00 | Mostly Cloudy and Windy | BKN037 BKN043 | 48.2 | 32 | 54% | 41 | 29.59 | 0.0 | ||||||
| 04 | 09:35 | NW 24 G 31 | 10.00 | Mostly Cloudy and Breezy | BKN034 BKN040 | 46.4 | 32 | 57% | 39 | 29.59 | 0.0 | ||||||
| 04 | 09:15 | NW 26 | 10.00 | Partly Cloudy and Windy | SCT032 | 46.4 | 33.8 | 62% | 38 | 29.58 | 0.0 | ||||||
| 04 | 08:55 | NW 25 G 33 | 10.00 | Fair and Breezy | CLR | 48.2 | 32 | 54% | 41 | 29.57 | 0.0 | ||||||
| 04 | 08:35 | NW 24 G 35 | 10.00 | Fair and Breezy | CLR | 46.4 | 32 | 57% | 39 | 29.57 | 0.0 | ||||||
| 04 | 08:15 | NW 29 G 36 | 10.00 | Fair and Windy | CLR | 46.4 | 32 | 57% | 38 | 29.56 | 0.0 | ||||||
| 04 | 07:55 | NW 23 G 32 | 10.00 | Fair and Breezy | CLR | 46.4 | 32 | 57% | 39 | 29.55 | 0.0 | ||||||
| 04 | 07:35 | NW 26 | 10.00 | Fair and Windy | CLR | 46.4 | 32 | 57% | 38 | 29.54 | 0.0 | ||||||
| 04 | 07:15 | N 26 G 37 | 10.00 | Partly Cloudy and Windy | FEW038 SCT100 | 48.2 | 33.8 | 58% | 41 | 29.52 | 0.0 | ||||||
| 04 | 06:55 | NW 14 G 24 | 10.00 | Overcast | OVC100 | 50 | 37.4 | 62% | 45 | 29.5 | 0.0 | ||||||
| 04 | 06:35 | W 16 G 23 | 10.00 | Overcast | OVC100 | 50 | 39.2 | 67% | 45 | 29.49 | 0.0 | ||||||
| 04 | 06:15 | W 13 | 10.00 | Overcast | OVC095 | 48.2 | 39.2 | 71% | 43 | 29.48 | 0.0 | ||||||
| 04 | 05:55 | W 12 | 10.00 | Overcast | OVC090 | 48.2 | 39.2 | 71% | 44 | 29.47 | 0.0 | ||||||
| 04 | 05:35 | W 9 | 10.00 | Overcast | OVC095 | 48.2 | 37.4 | 66% | 45 | 29.47 | 0.0 | ||||||
| 04 | 05:15 | W 7 | 10.00 | Overcast | OVC110 | 48.2 | 37.4 | 66% | 46 | 29.46 | 0.0 | ||||||
| 04 | 04:55 | W 8 | 10.00 | Mostly Cloudy | FEW065 FEW070 BKN110 | 48.2 | 37.4 | 66% | 45 | 29.46 | 0.0 | ||||||
| 04 | 04:35 | NW 10 | 10.00 | Overcast | BKN065 BKN080 OVC110 | 50 | 37.4 | 62% | 46 | 29.45 | 0.0 | ||||||
| 04 | 04:15 | NW 7 | 10.00 | Overcast | BKN060 BKN080 OVC095 | 50 | 37.4 | 62% | 48 | 29.45 | 0.0 | ||||||
| 04 | 03:55 | N 10 G 18 | 10.00 | Overcast | BKN055 BKN095 OVC120 | 51.8 | 37.4 | 58% | 29.45 | 0.0 | |||||||
| 04 | 03:35 | N 21 G 28 | 10.00 | Overcast and Breezy | FEW050 SCT060 OVC120 | 53.6 | 37.4 | 54% | 29.46 | 0.0 | |||||||
| 04 | 03:15 | N 20 G 26 | 10.00 | Mostly Cloudy | SCT024 SCT039 BKN049 | 53.6 | 37.4 | 54% | 29.45 | 0.0 | |||||||
| 04 | 02:55 | N 24 G 32 | 10.00 | Overcast and Breezy | SCT023 SCT050 OVC120 | 53.6 | 37.4 | 54% | 29.44 | 0.0 | |||||||
| 04 | 02:35 | NW 29 G 38 | 10.00 | Mostly Cloudy and Windy | SCT024 SCT050 BKN100 | 57.2 | 37.4 | 48% | 29.43 | 0.0 | |||||||
| 04 | 02:15 | W 25 G 35 | 10.00 | Overcast and Breezy | SCT075 OVC110 | 64.4 | 35.6 | 34% | 29.4 | 0.0 | |||||||
| 04 | 01:55 | SW 25 | 10.00 | Overcast and Breezy | FEW003 FEW044 OVC110 | 62.6 | 33.8 | 34% | 29.34 | 0.0 | |||||||
| 04 | 01:35 | SW 26 G 35 | 10.00 | Mostly Cloudy and Windy | FEW055 BKN110 | 62.6 | 33.8 | 34% | 29.36 | 0.0 | |||||||
| 04 | 01:15 | SW 25 G 32 | 10.00 | Fair and Breezy | CLR | 62.6 | 33.8 | 34% | 29.36 | 0.0 | |||||||
| 04 | 00:55 | SW 25 | 10.00 | A Few Clouds and Breezy | FEW046 FEW050 | 60.8 | 32 | 34% | 29.38 | 0.0 | |||||||
| 04 | 00:35 | SW 23 G 29 | 10.00 | Partly Cloudy and Breezy | FEW046 FEW055 SCT110 | 60.8 | 32 | 34% | 29.39 | 0.0 | |||||||
| 04 | 00:15 | SW 20 G 26 | 10.00 | Mostly Cloudy | FEW037 FEW050 BKN110 | 60.8 | 32 | 34% | 29.4 | 0.0 | |||||||
| 03 | 23:55 | SW 20 G 25 | 10.00 | Partly Cloudy | FEW049 SCT120 | 60.8 | 32 | 34% | 29.42 | 0.0 | |||||||
| 03 | 23:35 | SW 18 G 25 | 10.00 | A Few Clouds | FEW042 FEW050 FEW055 | 60.8 | 32 | 34% | 29.43 | 0.0 | |||||||
| 03 | 23:15 | SW 17 | 10.00 | Partly Cloudy | FEW042 SCT055 | 60.8 | 32 | 34% | 29.45 | 0.0 | |||||||
| 03 | 22:55 | SW 15 | 10.00 | A Few Clouds | FEW030 FEW039 FEW050 | 60.8 | 32 | 34% | 29.46 | 0.0 | |||||||
| 03 | 22:35 | SW 14 | 10.00 | A Few Clouds | FEW047 FEW055 | 60.8 | 32 | 34% | 29.47 | 0.0 | |||||||
| 03 | 22:15 | SW 14 G 22 | 10.00 | Partly Cloudy | FEW048 SCT055 | 60.8 | 32 | 34% | 29.49 | 0.0 | |||||||
| 03 | 21:55 | SW 15 | 10.00 | A Few Clouds | FEW050 | 62.6 | 32 | 32% | 29.5 | 0.0 | |||||||
| 03 | 21:35 | SW 14 G 20 | 10.00 | A Few Clouds | FEW050 | 62.6 | 30.2 | 30% | 29.5 | 0.0 | |||||||
| 03 | 21:15 | SW 14 | 10.00 | Fair | CLR | 62.6 | 30.2 | 30% | 29.51 | 0.0 | |||||||
| 03 | 20:55 | SW 13 G 18 | 10.00 | Fair | CLR | 64.4 | 30.2 | 28% | 29.53 | 0.0 | |||||||
| 03 | 20:35 | SW 13 | 10.00 | Fair | CLR | 66.2 | 28.4 | 24% | 29.54 | 0.0 | |||||||
| 03 | 20:15 | SW 13 | 10.00 | Fair | CLR | 66.2 | 28.4 | 24% | 29.55 | 0.0 | |||||||
| 03 | 19:55 | SW 13 | 10.00 | Fair | CLR | 66.2 | 28.4 | 24% | 29.56 | 0.0 | |||||||
| 03 | 19:35 | SW 16 | 10.00 | Fair | CLR | 68 | 26.6 | 21% | 29.58 | 0.0 | |||||||
| 03 | 19:15 | W 18 G 25 | 10.00 | Fair | CLR | 69.8 | 26.6 | 20% | 29.58 | 0.0 | |||||||
| 03 | 18:55 | W 21 G 26 | 10.00 | Fair and Breezy | CLR | 71.6 | 26.6 | 19% | 29.59 | 0.0 | |||||||
| 03 | 18:35 | W 23 | 10.00 | Fair and Breezy | CLR | 71.6 | 28.4 | 20% | 29.6 | 0.0 | |||||||
| 03 | 18:15 | W 18 G 33 | 10.00 | Fair | CLR | 71.6 | 28.4 | 20% | 29.61 | 0.0 | |||||||
| 03 | 17:55 | W 18 G 26 | 10.00 | Fair | CLR | 71.6 | 28.4 | 20% | 29.62 | 0.0 | |||||||
| 03 | 17:35 | W 17 G 25 | 10.00 | Fair | CLR | 71.6 | 28.4 | 20% | 29.63 | 0.0 | |||||||
| 03 | 17:15 | W 18 G 26 | 10.00 | Fair | CLR | 71.6 | 30.2 | 22% | 29.63 | 0.0 | |||||||
| 03 | 16:55 | W 24 | 10.00 | Fair and Breezy | CLR | 71.6 | 30.2 | 22% | 29.64 | 0.0 | |||||||
| 03 | 16:35 | W 13 G 22 | 10.00 | Fair | CLR | 71.6 | 32 | 23% | 29.65 | 0.0 | |||||||
| 03 | 16:15 | W 17 G 25 | 10.00 | Fair | CLR | 69.8 | 30.2 | 23% | 29.67 | 0.0 | |||||||
| 03 | 15:55 | W 12 G 28 | 10.00 | Fair | CLR | 69.8 | 32 | 25% | 29.69 | 0.0 | |||||||
| 03 | 15:35 | NW 15 G 23 | 10.00 | Fair | CLR | 69.8 | 30.2 | 23% | 29.7 | 0.0 | |||||||
| 03 | 15:15 | W 10 G 17 | 10.00 | Fair | CLR | 69.8 | 30.2 | 23% | 29.71 | 0.0 | |||||||
| 03 | 14:55 | NW 9 G 18 | 10.00 | Fair | CLR | 68 | 32 | 26% | 29.72 | 0.0 | |||||||
| 03 | 14:35 | W 7 G 18 | 10.00 | Fair | CLR | 68 | 28.4 | 23% | 29.73 | 0.0 | |||||||
| 03 | 13:55 | W 12 G 18 | 10.00 | Fair | CLR | 66.2 | 32 | 28% | 29.76 | 0.0 | |||||||
| 03 | 13:35 | W 6 G 15 | 10.00 | Fair | CLR | 64.4 | 30.2 | 28% | 29.77 | 0.0 | |||||||
| 03 | 13:15 | NW 12 G 20 | 10.00 | Fair | CLR | 64.4 | 32 | 30% | 29.79 | 0.0 | |||||||
| 03 | 12:55 | W 12 | 10.00 | Fair | CLR | 64.4 | 32 | 30% | 29.79 | 0.0 | |||||||
| 03 | 12:35 | W 9 | 10.00 | Fair | CLR | 64.4 | 32 | 30% | 29.8 | 0.0 | |||||||
| 03 | 12:15 | NW 12 G 21 | 10.00 | Fair | CLR | 62.6 | 30.2 | 30% | 29.82 | 0.0 | |||||||
| 03 | 11:55 | NW 13 | 10.00 | Fair | CLR | 62.6 | 30.2 | 30% | 29.82 | 0.0 | |||||||
| 03 | 11:35 | NW 9 | 10.00 | Fair | CLR | 60.8 | 28.4 | 29% | 29.82 | 0.0 | |||||||
| 03 | 11:15 | N 10 G 16 | 10.00 | Fair | CLR | 60.8 | 28.4 | 29% | 29.83 | 0.0 | |||||||
| 03 | 10:55 | NW 10 | 10.00 | Fair | CLR | 59 | 30.2 | 34% | 29.83 | 0.0 | |||||||
| 03 | 10:35 | N 10 | 10.00 | Fair | CLR | 59 | 30.2 | 34% | 29.83 | 0.0 | |||||||
| 03 | 10:15 | N 10 | 10.00 | Fair | CLR | 57.2 | 32 | 39% | 29.83 | 0.0 | |||||||
| 03 | 09:55 | N 9 | 10.00 | Fair | CLR | 55.4 | 32 | 41% | 29.84 | 0.0 | |||||||
| 03 | 09:35 | NW 9 | 10.00 | Fair | CLR | 53.6 | 32 | 44% | 29.84 | 0.0 | |||||||
| 03 | 09:15 | N 8 | 10.00 | Fair | CLR | 51.8 | 32 | 47% | 29.84 | 0.0 | |||||||
| 03 | 08:55 | NW 10 | 10.00 | Fair | CLR | 50 | 32 | 50% | 46 | 29.84 | 0.0 | ||||||
| 03 | 08:35 | N 12 | 10.00 | Fair | CLR | 48.2 | 30.2 | 50% | 44 | 29.84 | 0.0 | ||||||
| 03 | 08:15 | NW 12 | 10.00 | Fair | CLR | 48.2 | 32 | 54% | 44 | 29.84 | 0.0 | ||||||
| 03 | 07:55 | NW 12 | 10.00 | Fair | CLR | 46.4 | 32 | 57% | 42 | 29.83 | 0.0 | ||||||
| 03 | 07:35 | NW 13 | 10.00 | Fair | CLR | 44.6 | 33.8 | 66% | 39 | 29.82 | 0.0 | ||||||
| 03 | 07:15 | NW 14 | 10.00 | Fair | CLR | 42.8 | 32 | 66% | 36 | 29.82 | 0.0 | ||||||
| 03 | 06:55 | N 10 | 10.00 | Fair | CLR | 42.8 | 32 | 66% | 38 | 29.81 | 0.0 | ||||||
| 03 | 06:35 | N 10 | 10.00 | Fair | CLR | 41 | 33.8 | 76% | 35 | 29.8 | 0.0 | ||||||
| 03 | 06:15 | N 13 | 10.00 | Fair | CLR | 41 | 33.8 | 76% | 34 | 29.8 | 0.0 | ||||||
| 03 | 05:55 | N 13 | 10.00 | Fair | CLR | 42.8 | 35.6 | 76% | 37 | 29.79 | 0.0 | ||||||
| 03 | 05:35 | NW 14 | 10.00 | A Few Clouds | FEW050 FEW055 | 42.8 | 37.4 | 81% | 36 | 29.79 | 0.0 | ||||||
| 03 | 05:15 | NW 13 | 10.00 | A Few Clouds | FEW041 FEW050 | 42.8 | 39.2 | 87% | 37 | 29.79 | 0.0 | ||||||
| 03 | 04:55 | NW 13 | 10.00 | Mostly Cloudy | BKN040 BKN046 BKN050 | 44.6 | 39.2 | 81% | 39 | 29.79 | 0.0 | ||||||
| 03 | 04:35 | NW 14 | 10.00 | Mostly Cloudy | BKN039 BKN047 BKN055 | 44.6 | 39.2 | 81% | 39 | 29.78 | 0.0 | ||||||
| 03 | 04:15 | NW 13 | 10.00 | Mostly Cloudy | BKN042 BKN049 | 44.6 | 39.2 | 81% | 39 | 29.78 | 0.0 | ||||||
| 03 | 03:55 | NW 12 | 10.00 | Mostly Cloudy | BKN042 BKN047 | 46.4 | 39.2 | 76% | 42 | 29.77 | 0.0 | ||||||
| 03 | 03:35 | N 10 | 10.00 | Mostly Cloudy | SCT042 BKN049 | 44.6 | 39.2 | 81% | 40 | 29.76 | 0.0 | ||||||
| 03 | 03:15 | NW 12 | 10.00 | Partly Cloudy | FEW042 SCT049 | 46.4 | 39.2 | 76% | 42 | 29.76 | 0.0 | ||||||
| 03 | 02:55 | N 14 | 10.00 | Mostly Cloudy | FEW035 BKN042 BKN050 | 46.4 | 39.2 | 76% | 41 | 29.75 | 0.0 | ||||||
| 03 | 02:35 | N 14 | 10.00 | Mostly Cloudy | SCT034 BKN041 BKN050 | 48.2 | 37.4 | 66% | 43 | 29.75 | 0.0 | ||||||
| 03 | 02:15 | NW 16 | 10.00 | Mostly Cloudy | BKN039 BKN048 | 48.2 | 37.4 | 66% | 43 | 29.75 | 0.0 | ||||||
| 03 | 01:55 | NW 14 | 10.00 | Overcast | BKN039 BKN045 OVC050 | 48.2 | 37.4 | 66% | 43 | 29.75 | 0.0 | ||||||
| 03 | 01:35 | NW 15 G 22 | 10.00 | Mostly Cloudy | SCT036 BKN043 BKN049 | 51.8 | 35.6 | 54% | 29.74 | 0.0 | |||||||
| 03 | 01:15 | N 16 | 10.00 | Mostly Cloudy | SCT036 BKN042 BKN049 | 53.6 | 35.6 | 51% | 29.74 | 0.0 | |||||||
| 03 | 00:55 | N 16 G 24 | 10.00 | Overcast | SCT037 SCT049 OVC060 | 53.6 | 35.6 | 51% | 29.73 | 0.0 | |||||||
| 03 | 00:35 | N 16 | 10.00 | Overcast | OVC060 | 55.4 | 35.6 | 47% | 29.72 | 0.0 | |||||||
| 03 | 00:15 | N 17 | 10.00 | Mostly Cloudy | FEW050 BKN060 BKN070 | 55.4 | 35.6 | 47% | 29.71 | 0.0 | |||||||
| 02 | 23:55 | N 18 | 10.00 | Partly Cloudy | SCT050 SCT065 SCT075 | 55.4 | 35.6 | 47% | 29.71 | 0.0 | |||||||
| 02 | 23:35 | N 18 | 10.00 | Partly Cloudy | FEW044 FEW060 SCT075 | 57.2 | 35.6 | 44% | 29.7 | 0.0 | |||||||
| 02 | 23:15 | N 20 | 10.00 | Partly Cloudy | FEW043 FEW050 SCT080 | 57.2 | 35.6 | 44% | 29.7 | 0.0 | |||||||
| 02 | 22:55 | NW 12 | 10.00 | Partly Cloudy | FEW049 FEW055 SCT065 | 51.8 | 35.6 | 54% | 29.69 | 0.0 | |||||||
| 02 | 22:35 | NW 7 | 10.00 | Partly Cloudy | FEW040 SCT055 SCT065 | 50 | 33.8 | 54% | 48 | 29.68 | 0.0 | ||||||
| 02 | 22:15 | W 7 | 10.00 | Mostly Cloudy | SCT034 SCT042 BKN050 | 50 | 33.8 | 54% | 48 | 29.67 | 0.0 | ||||||
| 02 | 21:55 | SW 5 | 10.00 | Mostly Cloudy | FEW031 SCT044 BKN049 | 50 | 33.8 | 54% | 49 | 29.67 | 0.0 | ||||||
| 02 | 21:35 | S 6 | 10.00 | Mostly Cloudy | SCT055 BKN065 | 53.6 | 33.8 | 47% | 29.66 | 0.0 | |||||||
| 02 | 21:15 | S 7 | 10.00 | Fair | CLR | 55.4 | 33.8 | 44% | 29.66 | 0.0 | |||||||
| 02 | 20:55 | S 6 | 10.00 | Fair | CLR | 59 | 32 | 36% | 29.66 | 0.0 | |||||||
| 02 | 20:35 | Vrbl 3 | 10.00 | Partly Cloudy | SCT095 SCT120 | 60.8 | 32 | 34% | 29.67 | 0.0 | |||||||
| 02 | 20:15 | S 12 | 10.00 | Mostly Cloudy | BKN095 BKN120 | 62.6 | 33.8 | 34% | 29.66 | 0.0 | |||||||
| 02 | 19:55 | S 9 | 10.00 | Mostly Cloudy | BKN100 BKN120 | 64.4 | 33.8 | 32% | 29.67 | 0.0 | |||||||
| 02 | 19:35 | S 9 | 10.00 | Mostly Cloudy | BKN100 BKN120 | 64.4 | 32 | 30% | 29.68 | 0.0 | |||||||
| 02 | 19:15 | S 12 | 10.00 | Mostly Cloudy | BKN100 | 66.2 | 30.2 | 26% | 29.68 | 0.0 | |||||||
| 02 | 18:55 | S 14 G 20 | 10.00 | A Few Clouds | FEW110 | 68 | 28.4 | 23% | 29.69 | 0.0 | |||||||
| 02 | 18:35 | SW 21 | 10.00 | Partly Cloudy and Breezy | SCT100 | 68 | 28.4 | 23% | 29.71 | 0.0 | |||||||
| 02 | 18:15 | S 14 G 20 | 10.00 | Partly Cloudy | SCT100 | 68 | 26.6 | 21% | 29.72 | 0.0 | |||||||
| 02 | 17:55 | S 17 | 10.00 | Fair | CLR | 69.8 | 26.6 | 20% | 29.73 | 0.0 | |||||||
| 02 | 17:35 | S 13 G 21 | 10.00 | Partly Cloudy | SCT110 | 69.8 | 26.6 | 20% | 29.74 | 0.0 | |||||||
| 02 | 17:15 | SW 12 | 10.00 | Mostly Cloudy | FEW075 BKN110 | 66.2 | 24.8 | 21% | 29.76 | 0.0 | |||||||
| 02 | 16:55 | SW 15 | 10.00 | Partly Cloudy | FEW075 SCT100 | 66.2 | 21.2 | 18% | 29.77 | 0.0 | |||||||
| 02 | 16:35 | W 10 G 22 | 10.00 | Mostly Cloudy | BKN100 | 66.2 | 24.8 | 21% | 29.79 | 0.0 | |||||||
| 02 | 16:15 | W 21 G 26 | 10.00 | Partly Cloudy and Breezy | SCT100 | 68 | 26.6 | 21% | 29.8 | 0.0 | |||||||
| 02 | 15:55 | SW 16 | 10.00 | A Few Clouds | FEW100 | 66.2 | 26.6 | 22% | 29.81 | 0.0 | |||||||
| 02 | 15:35 | SW 16 G 23 | 10.00 | Mostly Cloudy | BKN100 | 66.2 | 28.4 | 24% | 29.82 | 0.0 | |||||||
| 02 | 15:15 | SW 16 | 10.00 | Partly Cloudy | SCT100 | 66.2 | 26.6 | 22% | 29.83 | 0.0 | |||||||
| 02 | 14:55 | SW 20 | 10.00 | Overcast | OVC100 | 66.2 | 26.6 | 22% | 29.84 | 0.0 | |||||||
| 02 | 14:35 | SW 25 | 10.00 | Mostly Cloudy and Breezy | BKN110 | 66.2 | 26.6 | 22% | 29.84 | 0.0 | |||||||
| 02 | 14:15 | W 23 G 31 | 10.00 | A Few Clouds and Breezy | FEW120 | 68 | 28.4 | 23% | 29.84 | 0.0 | |||||||
| 02 | 13:55 | SW 24 G 31 | 10.00 | Fair and Breezy | CLR | 68 | 28.4 | 23% | 29.85 | 0.0 | |||||||
| 02 | 13:35 | W 20 G 33 | 10.00 | Fair | CLR | 71.6 | 30.2 | 22% | 29.85 | 0.0 | |||||||
| 02 | 13:15 | W 18 G 30 | 10.00 | Fair | CLR | 69.8 | 30.2 | 23% | 29.86 | 0.0 | |||||||
| 02 | 12:55 | W 18 G 28 | 10.00 | Fair | CLR | 68 | 32 | 26% | 29.87 | 0.0 | |||||||
| 02 | 12:35 | W 15 G 24 | 10.00 | Fair | CLR | 68 | 33.8 | 28% | 29.88 | 0.0 | |||||||
| 02 | 12:15 | W 17 G 23 | 10.00 | Fair | CLR | 66.2 | 33.8 | 30% | 29.89 | 0.0 | |||||||
| 02 | 11:55 | W 16 G 22 | 10.00 | Fair | CLR | 64.4 | 33.8 | 32% | 29.9 | 0.0 | |||||||
| 02 | 11:35 | W 17 | 10.00 | Fair | CLR | 64.4 | 33.8 | 32% | 29.91 | 0.0 | |||||||
| 02 | 11:15 | SW 16 | 10.00 | Fair | CLR | 62.6 | 33.8 | 34% | 29.92 | 0.0 | |||||||
| 02 | 10:55 | W 12 G 21 | 10.00 | Fair | CLR | 60.8 | 33.8 | 36% | 29.93 | 0.0 | |||||||
| 02 | 10:35 | W 13 G 22 | 10.00 | Fair | CLR | 59 | 33.8 | 39% | 29.94 | 0.0 | |||||||
| 02 | 10:15 | W 16 | 10.00 | Fair | CLR | 59 | 32 | 36% | 29.95 | 0.0 | |||||||
| 02 | 09:55 | W 14 G 21 | 10.00 | Fair | CLR | 57.2 | 32 | 39% | 29.96 | 0.0 | |||||||
| 02 | 09:35 | SW 13 G 18 | 10.00 | Fair | CLR | 55.4 | 33.8 | 44% | 29.96 | 0.0 | |||||||
| 02 | 09:15 | SW 16 | 10.00 | Fair | CLR | 53.6 | 33.8 | 47% | 29.97 | 0.0 | |||||||
| 02 | 08:55 | S 14 | 10.00 | Fair | CLR | 50 | 33.8 | 54% | 45 | 29.97 | 0.0 | ||||||
| 02 | 08:35 | SW 12 | 10.00 | Partly Cloudy | SCT100 | 46.4 | 33.8 | 62% | 42 | 29.98 | 0.0 | ||||||
| 02 | 08:15 | S 12 | 10.00 | Mostly Cloudy | BKN100 | 44.6 | 35.6 | 71% | 39 | 29.98 | 0.0 | ||||||
| 02 | 07:55 | S 9 | 10.00 | A Few Clouds | FEW100 | 42.8 | 35.6 | 76% | 38 | 29.99 | 0.0 | ||||||
| 02 | 07:35 | S 9 | 10.00 | Fair | CLR | 41 | 35.6 | 81% | 36 | 30 | 0.0 | ||||||
| 02 | 07:15 | S 8 | 10.00 | Fair | CLR | 37.4 | 35.6 | 93% | 32 | 30 | 0.0 | ||||||
| 02 | 06:55 | S 6 | 10.00 | Fair | CLR | 33.8 | 33.8 | 100% | 29 | 30 | 0.0 | ||||||
| 02 | 06:35 | S 6 | 10.00 | Fair | CLR | 33.8 | 33.8 | 100% | 29 | 30.01 | 0.0 | ||||||
| 02 | 06:15 | S 7 | 10.00 | A Few Clouds | FEW100 | 33.8 | 33.8 | 100% | 28 | 30.01 | 0.0 | ||||||
| 02 | 05:55 | S 9 | 10.00 | Partly Cloudy | SCT100 | 33.8 | 32 | 93% | 27 | 30.01 | 0.0 | ||||||
| 02 | 05:35 | S 9 | 10.00 | Mostly Cloudy | FEW036 SCT049 BKN100 | 33.8 | 32 | 93% | 27 | 30.02 | 0.0 | ||||||
| 02 | 05:15 | S 10 | 10.00 | Overcast | FEW035 BKN046 OVC070 | 32 | 28.4 | 87% | 24 | 30.03 | 0.0 | ||||||
| 02 | 04:55 | S 8 | 10.00 | Overcast | SCT045 BKN055 OVC060 | 32 | 28.4 | 87% | 25 | 30.03 | 0.0 | ||||||
| 02 | 04:35 | S 7 | 10.00 | Overcast | BKN055 OVC100 | 33.8 | 28.4 | 81% | 28 | 30.04 | 0.0 | ||||||
| 02 | 04:15 | S 8 | 10.00 | Overcast | FEW032 SCT048 OVC100 | 33.8 | 28.4 | 81% | 28 | 30.04 | 0.0 | ||||||
| 02 | 03:55 | S 7 | 10.00 | Mostly Cloudy | FEW032 SCT042 BKN050 | 32 | 28.4 | 87% | 26 | 30.04 | 0.0 | ||||||
| 02 | 03:35 | SW 7 | 10.00 | Overcast | FEW031 SCT065 OVC080 | 35.6 | 26.6 | 70% | 31 | 30.04 | 0.0 | ||||||
| 02 | 03:15 | SW 7 | 10.00 | Mostly Cloudy | FEW046 FEW070 BKN080 | 35.6 | 26.6 | 70% | 31 | 30.05 | 0.0 | ||||||
| 02 | 02:55 | SW 6 | 10.00 | Mostly Cloudy | BKN080 | 33.8 | 28.4 | 81% | 29 | 30.05 | 0.0 | ||||||
| 02 | 02:35 | SW 5 | 10.00 | Overcast | SCT024 OVC080 | 32 | 28.4 | 87% | 28 | 30.06 | 0.0 | ||||||
| 02 | 02:15 | SW 6 | 10.00 | Overcast | BKN024 OVC080 | 32 | 28.4 | 87% | 27 | 30.06 | 0.0 | ||||||
| 02 | 01:55 | SW 6 | 10.00 | Overcast | OVC026 | 32 | 26.6 | 80% | 27 | 30.06 | 0.0 | ||||||
| 02 | 01:35 | SW 7 | 10.00 | Overcast | OVC027 | 33.8 | 26.6 | 75% | 28 | 30.07 | 0.0 | ||||||
| 02 | 01:15 | S 7 | 10.00 | Overcast | BKN028 BKN032 OVC049 | 35.6 | 28.4 | 75% | 31 | 30.07 | 0.0 | ||||||
| 02 | 00:55 | S 5 | 10.00 | Mostly Cloudy | FEW033 SCT050 BKN075 | 35.6 | 28.4 | 75% | 32 | 30.07 | 0.0 | ||||||
| 02 | 00:35 | S 5 | 10.00 | Partly Cloudy | FEW034 FEW043 SCT050 | 37.4 | 26.6 | 65% | 34 | 30.07 | 0.0 | ||||||
| 02 | 00:15 | S 3 | 10.00 | Mostly Cloudy | FEW004 FEW036 BKN049 | 37.4 | 32 | 81% | 30.07 | 0.0 | |||||||
| 01 | 23:55 | S 3 | 10.00 | Mostly Cloudy | FEW003 FEW035 BKN049 | 37.4 | 28.4 | 70% | 30.07 | 0.0 | |||||||
| 01 | 23:35 | Calm | 10.00 | Partly Cloudy | SCT050 SCT055 | 39.2 | 26.6 | 61% | 30.08 | 0.0 | |||||||
| 01 | 23:15 | S 6 | 10.00 | Partly Cloudy | SCT050 | 41 | 24.8 | 53% | 38 | 30.08 | 0.0 | ||||||
| 01 | 22:55 | S 3 | 10.00 | Partly Cloudy | SCT050 SCT055 | 39.2 | 23 | 52% | 30.08 | 0.0 | |||||||
| 01 | 22:35 | Calm | 10.00 | Mostly Cloudy | SCT050 BKN055 | 41 | 21.2 | 45% | 30.08 | 0.0 | |||||||
| 01 | 22:15 | Calm | 10.00 | Partly Cloudy | SCT050 SCT055 | 42.8 | 21.2 | 42% | 30.08 | 0.0 | |||||||
| 01 | 21:55 | Calm | 10.00 | Partly Cloudy | FEW043 SCT050 | 44.6 | 21.2 | 39% | 30.08 | 0.0 | |||||||
| 01 | 21:35 | Calm | 10.00 | Mostly Cloudy | FEW043 SCT050 BKN055 | 44.6 | 21.2 | 39% | 30.08 | 0.0 | |||||||
| 01 | 21:15 | Calm | 10.00 | A Few Clouds | FEW050 | 44.6 | 21.2 | 39% | 30.08 | 0.0 | |||||||
| 01 | 20:55 | Calm | 10.00 | Fair | CLR | 48.2 | 21.2 | 34% | 30.07 | 0.0 | |||||||
| 01 | 20:35 | Calm | 10.00 | Fair | CLR | 48.2 | 21.2 | 34% | 30.07 | 0.0 | |||||||
| 01 | 20:15 | NW 5 | 10.00 | Fair | CLR | 50 | 21.2 | 32% | 49 | 30.07 | 0.0 | ||||||
| 01 | 19:55 | NW 7 | 10.00 | Fair | CLR | 51.8 | 21.2 | 30% | 30.07 | 0.0 | |||||||
| Date | Time (cdt) | Wind (mph) | Vis. (mi.) | Weather | Sky Cond. | Air | Dwpt | Max. | Min. | Relative Humidity | Wind Chill (°F) | Heat Index (°F) | altimeter (in) | sea level (mb) | 1 hr | 3 hr | 6 hr |
| 6 hour | |||||||||||||||||
| Temperature (ºF) | Pressure | Precipitation (in) | |||||||||||||||